createdAt,value
2022-11-18T00:00:39.500Z,8.98
2022-11-18T00:03:08.979Z,7.60
2022-11-18T00:05:41.023Z,8.45
2022-11-18T00:08:10.496Z,6.50
2022-11-18T00:10:40.773Z,4.20
2022-11-18T00:13:25.870Z,3.75
2022-11-18T00:16:03.127Z,4.93
2022-11-18T00:18:32.641Z,5.35
2022-11-18T00:21:06.818Z,5.13
2022-11-18T00:23:36.375Z,4.30
2022-11-18T00:26:06.171Z,4.07
2022-11-18T00:28:35.768Z,4.40
2022-11-18T00:31:05.867Z,4.75
2022-11-18T00:33:36.929Z,4.90
2022-11-18T00:38:38.509Z,4.45
2022-11-18T00:41:09.090Z,4.88
2022-11-18T00:43:36.040Z,5.25
2022-11-18T00:46:05.720Z,5.90
2022-11-18T00:48:35.181Z,5.50
2022-11-18T00:51:12.740Z,5.25
2022-11-18T00:53:42.201Z,5.57
2022-11-18T00:56:11.892Z,6.63
2022-11-18T00:58:41.403Z,7.78
2022-11-18T01:01:11.217Z,9.57
2022-11-18T01:03:40.742Z,8.60
2022-11-18T01:06:12.899Z,6.32
2022-11-18T01:08:42.372Z,6.03
2022-11-18T01:11:32.983Z,5.82
2022-11-18T01:14:02.432Z,5.65
2022-11-18T01:16:32.156Z,5.32
2022-11-18T01:19:01.608Z,5.47
2022-11-18T01:21:33.956Z,5.30
2022-11-18T01:24:03.433Z,4.70
2022-11-18T01:26:32.853Z,4.80
2022-11-18T01:29:02.317Z,4.90
2022-11-18T01:31:31.784Z,5.22
2022-11-18T01:34:01.215Z,4.72
2022-11-18T01:36:30.672Z,5.18
2022-11-18T01:39:03.079Z,5.93
2022-11-18T01:41:32.535Z,7.85
2022-11-18T01:44:02.644Z,7.47
2022-11-18T01:46:32.974Z,7.13
2022-11-18T01:49:03.569Z,6.68
2022-11-18T01:51:35.186Z,7.22
2022-11-18T01:54:09.213Z,6.65
2022-11-18T01:56:40.696Z,5.95
2022-11-18T01:59:11.960Z,6.22
2022-11-18T02:01:41.542Z,5.85
2022-11-18T02:04:11.015Z,7.20
2022-11-18T02:06:40.522Z,6.70
2022-11-18T02:09:12.572Z,6.70
2022-11-18T02:11:54.737Z,6.30
2022-11-18T02:14:25.115Z,6.60
2022-11-18T02:17:07.067Z,6.65
2022-11-18T02:20:13.394Z,7.15
2022-11-18T02:23:07.598Z,5.80
2022-11-18T02:25:43.765Z,5.85
2022-11-18T02:28:41.936Z,6.03
2022-11-18T02:31:17.625Z,5.70
2022-11-18T02:33:52.371Z,6.05
2022-11-18T02:36:23.235Z,6.25
2022-11-18T02:38:54.908Z,6.05
2022-11-18T02:41:26.344Z,6.63
2022-11-18T02:43:56.649Z,6.97
2022-11-18T02:46:33.124Z,7.25
2022-11-18T02:49:03.509Z,7.53
2022-11-18T02:51:33.052Z,7.53
2022-11-18T02:54:03.936Z,8.43
2022-11-18T02:56:33.396Z,8.13
2022-11-18T02:59:02.840Z,8.15
2022-11-18T03:01:36.463Z,7.75
2022-11-18T03:04:06.648Z,7.85
2022-11-18T03:06:38.064Z,9.02
2022-11-18T03:09:12.514Z,8.50
2022-11-18T03:11:45.398Z,9.15
2022-11-18T03:14:22.005Z,8.63
2022-11-18T03:16:59.492Z,8.70
2022-11-18T03:19:34.389Z,7.93
2022-11-18T03:22:08.784Z,7.53
2022-11-18T03:24:38.206Z,7.82
2022-11-18T03:27:12.032Z,8.65
2022-11-18T03:29:42.432Z,8.27
2022-11-18T03:32:16.834Z,8.80
2022-11-18T03:34:47.856Z,8.55
2022-11-18T03:37:17.804Z,8.40
2022-11-18T03:39:49.139Z,9.43
2022-11-18T03:42:19.774Z,9.48
2022-11-18T03:44:53.928Z,10.05
2022-11-18T03:47:27.924Z,10.32
2022-11-18T03:49:59.943Z,10.38
2022-11-18T03:52:30.774Z,10.98
2022-11-18T03:55:00.599Z,10.38
2022-11-18T03:57:34.214Z,9.57
2022-11-18T04:00:06.443Z,10.05
2022-11-18T04:02:38.489Z,10.05
2022-11-18T04:05:09.753Z,10.65
2022-11-18T04:07:41.269Z,10.52
2022-11-18T04:10:13.365Z,10.93
2022-11-18T04:12:45.286Z,10.18
2022-11-18T04:15:14.744Z,10.73
2022-11-18T04:17:46.827Z,10.10
2022-11-18T04:20:17.017Z,10.13
2022-11-18T04:22:46.459Z,9.73
2022-11-18T04:25:15.941Z,9.65
2022-11-18T04:27:45.408Z,9.35
2022-11-18T04:30:16.059Z,9.85
2022-11-18T04:32:48.165Z,9.70
2022-11-18T04:35:17.793Z,9.10
2022-11-18T04:37:47.252Z,9.05
2022-11-18T04:40:16.670Z,8.57
2022-11-18T04:42:46.144Z,8.68
2022-11-18T04:45:15.592Z,7.85
2022-11-18T04:47:45.084Z,7.38
2022-11-18T04:50:17.110Z,7.47
2022-11-18T04:52:46.563Z,6.95
2022-11-18T04:55:16.013Z,7.13
2022-11-18T04:57:45.447Z,6.47
2022-11-18T05:00:15.622Z,7.00
2022-11-18T05:02:45.056Z,6.83
2022-11-18T05:05:17.124Z,6.72
2022-11-18T05:07:46.776Z,7.20
2022-11-18T05:10:16.303Z,8.38
2022-11-18T05:12:49.238Z,8.95
2022-11-18T05:15:18.956Z,8.63
2022-11-18T05:17:48.507Z,8.63
2022-11-18T05:20:20.936Z,9.25
2022-11-18T05:22:50.374Z,11.25
2022-11-18T05:25:19.848Z,10.57
2022-11-18T05:27:49.275Z,10.50
2022-11-18T05:30:18.818Z,11.75
2022-11-18T05:32:48.313Z,11.32
2022-11-18T05:35:20.356Z,12.43
2022-11-18T05:37:49.796Z,12.45
2022-11-18T05:40:20.171Z,11.48
2022-11-18T05:43:02.108Z,10.52
2022-11-18T05:45:31.512Z,9.68
2022-11-18T05:48:04.652Z,11.25
2022-11-18T05:50:37.906Z,11.35
2022-11-18T05:53:08.261Z,12.30
2022-11-18T05:55:39.444Z,13.13
2022-11-18T06:00:38.043Z,13.63
2022-11-18T06:03:07.626Z,12.52
2022-11-18T06:05:39.709Z,12.13
2022-11-18T06:08:09.149Z,12.77
2022-11-18T06:10:38.784Z,11.95
2022-11-18T06:13:09.088Z,11.43
2022-11-18T06:15:40.058Z,11.35
2022-11-18T06:18:10.468Z,11.35
2022-11-18T06:20:42.642Z,11.82
2022-11-18T06:23:12.144Z,11.88
2022-11-18T06:25:41.703Z,12.48
2022-11-18T06:28:11.665Z,13.60
2022-11-18T06:30:41.129Z,13.38
2022-11-18T06:33:10.874Z,12.60
2022-11-18T06:35:42.995Z,12.23
2022-11-18T06:38:12.431Z,13.82
2022-11-18T06:40:44.741Z,13.45
2022-11-18T06:43:26.943Z,14.25
2022-11-18T06:46:09.509Z,13.77
2022-11-18T06:48:39.091Z,13.48
2022-11-18T06:51:11.122Z,11.80
2022-11-18T06:53:40.627Z,12.98
2022-11-18T06:56:10.968Z,12.40
2022-11-18T06:58:40.422Z,11.65
2022-11-18T07:01:13.949Z,11.13
2022-11-18T07:03:43.574Z,13.10
2022-11-18T07:06:16.401Z,12.52
2022-11-18T07:08:45.915Z,15.93
2022-11-18T07:11:22.231Z,15.75
2022-11-18T07:13:51.681Z,14.77
2022-11-18T07:16:21.948Z,14.70
2022-11-18T07:18:53.972Z,14.20
2022-11-18T07:21:26.648Z,12.80
2022-11-18T07:23:56.127Z,12.75
2022-11-18T07:26:25.750Z,12.80
2022-11-18T07:28:55.184Z,13.95
2022-11-18T07:31:24.603Z,13.85
2022-11-18T07:33:54.751Z,13.93
2022-11-18T07:36:32.362Z,13.23
2022-11-18T07:39:04.988Z,14.65
2022-11-18T07:41:34.447Z,13.05
2022-11-18T07:44:04.607Z,13.48
2022-11-18T07:46:34.962Z,19.70
2022-11-18T07:49:05.476Z,20.95
2022-11-18T07:51:38.239Z,20.52
2022-11-18T07:54:11.144Z,21.38
2022-11-18T07:56:40.681Z,14.77
2022-11-18T07:59:10.189Z,11.45
2022-11-18T08:01:39.735Z,14.60
2022-11-18T08:04:10.114Z,13.75
2022-11-18T08:06:42.390Z,13.00
2022-11-18T08:09:11.988Z,12.68
2022-11-18T08:11:41.439Z,12.65
2022-11-18T08:14:10.923Z,9.40
2022-11-18T08:16:40.373Z,6.07
2022-11-18T08:19:09.780Z,7.22
2022-11-18T08:21:41.829Z,7.28
2022-11-18T08:24:12.340Z,6.88
2022-11-18T08:26:41.760Z,5.63
2022-11-18T08:29:11.432Z,5.25
2022-11-18T08:31:40.863Z,5.47
2022-11-18T08:34:10.384Z,6.43
2022-11-18T08:36:42.648Z,6.70
2022-11-18T08:39:14.955Z,6.32
2022-11-18T08:41:46.838Z,5.68
2022-11-18T08:44:17.711Z,4.35
2022-11-18T08:46:47.638Z,4.50
2022-11-18T08:49:17.628Z,3.72
2022-11-18T08:51:49.808Z,3.20
2022-11-18T08:54:19.240Z,3.35
2022-11-18T08:56:50.643Z,5.63
2022-11-18T08:59:20.662Z,4.50
2022-11-18T09:01:50.208Z,2.92
2022-11-18T09:04:19.659Z,2.97
2022-11-18T09:06:51.738Z,3.53
2022-11-18T09:09:21.419Z,2.90
2022-11-18T09:11:51.213Z,3.30
2022-11-18T09:17:10.106Z,5.20
2022-11-18T09:19:47.126Z,3.35
2022-11-18T09:22:19.911Z,3.05
2022-11-18T09:24:49.352Z,3.88
2022-11-18T09:27:18.818Z,3.70
2022-11-18T09:29:48.224Z,4.13
2022-11-18T09:32:17.682Z,4.28
2022-11-18T09:34:47.126Z,4.75
2022-11-18T09:37:19.219Z,4.68
2022-11-18T09:39:48.661Z,5.47
2022-11-18T09:42:27.440Z,4.35
2022-11-18T09:45:08.579Z,3.20
2022-11-18T09:47:41.404Z,3.08
2022-11-18T09:50:41.754Z,3.08
2022-11-18T09:53:11.801Z,3.30
2022-11-18T09:55:41.775Z,5.90
2022-11-18T09:58:15.975Z,4.75
2022-11-18T10:00:46.720Z,3.10
2022-11-18T10:03:18.715Z,2.90
2022-11-18T10:05:49.898Z,2.60
2022-11-18T10:08:24.933Z,2.47
2022-11-18T10:11:00.584Z,2.63
2022-11-18T10:13:35.407Z,4.18
2022-11-18T10:16:08.932Z,2.50
2022-11-18T10:24:05.435Z,2.33
2022-11-18T10:26:38.601Z,2.40
2022-11-18T10:29:10.168Z,2.30
2022-11-18T10:31:40.236Z,2.35
2022-11-18T10:34:11.823Z,2.50
2022-11-18T10:36:41.227Z,3.00
2022-11-18T10:39:17.238Z,2.92
2022-11-18T10:41:49.317Z,3.00
2022-11-18T10:44:41.502Z,3.90
2022-11-18T10:47:26.259Z,2.60
2022-11-18T10:49:56.479Z,3.10
2022-11-18T10:52:26.044Z,3.20
2022-11-18T10:55:23.728Z,2.65
2022-11-18T10:58:01.255Z,2.65
2022-11-18T11:00:47.496Z,3.10
2022-11-18T11:03:35.679Z,3.20
2022-11-18T11:06:25.649Z,2.47
2022-11-18T11:08:56.276Z,2.10
2022-11-18T11:11:30.116Z,1.67
2022-11-18T11:14:04.734Z,1.70
2022-11-18T11:16:41.828Z,1.70
2022-11-18T11:19:12.504Z,1.70
2022-11-18T11:21:41.975Z,1.77
2022-11-18T11:24:15.040Z,1.95
2022-11-18T11:30:06.020Z,2.50
2022-11-18T11:32:44.449Z,1.88
2022-11-18T11:35:16.395Z,1.90
2022-11-18T11:37:53.740Z,1.73
2022-11-18T11:40:26.623Z,2.75
2022-11-18T11:43:10.776Z,3.20
2022-11-18T11:45:43.769Z,1.67
2022-11-18T11:48:21.944Z,1.75
2022-11-18T11:51:03.877Z,1.80
2022-11-18T11:53:46.363Z,1.60
2022-11-18T11:56:22.400Z,1.85
2022-11-18T11:59:13.574Z,1.80
2022-11-18T12:01:49.555Z,1.45
2022-11-18T12:04:26.652Z,1.70
2022-11-18T12:06:56.474Z,1.92
2022-11-18T12:09:31.526Z,1.75
2022-11-18T12:12:03.654Z,1.65
2022-11-18T12:14:40.039Z,1.35
2022-11-18T12:17:12.036Z,1.55
2022-11-18T12:19:41.600Z,1.63
2022-11-18T12:22:11.016Z,1.38
2022-11-18T12:24:40.706Z,1.63
2022-11-18T12:27:15.414Z,1.60
2022-11-18T12:29:59.147Z,1.30
2022-11-18T12:32:42.501Z,1.35
2022-11-18T12:35:28.437Z,1.48
2022-11-18T12:38:02.356Z,1.70
2022-11-18T12:40:48.829Z,1.45
2022-11-18T12:43:47.691Z,1.50
2022-11-18T12:46:47.234Z,1.40
2022-11-18T12:49:52.804Z,1.50
2022-11-18T12:52:52.692Z,1.50
2022-11-18T12:55:35.329Z,1.30
2022-11-18T12:58:04.819Z,1.40
2022-11-18T13:00:52.794Z,1.70
2022-11-18T13:03:28.796Z,1.70
2022-11-18T13:06:07.468Z,1.73
2022-11-18T13:08:39.494Z,1.50
2022-11-18T13:11:25.256Z,1.48
2022-11-18T13:14:15.581Z,1.90
2022-11-18T13:16:58.692Z,1.63
2022-11-18T13:19:28.208Z,2.00
2022-11-18T13:22:10.308Z,1.50
2022-11-18T13:24:46.804Z,1.40
2022-11-18T13:27:26.024Z,1.70
2022-11-18T13:29:58.296Z,1.50
2022-11-18T13:32:28.154Z,1.45
2022-11-18T13:34:58.828Z,1.40
2022-11-18T13:37:29.237Z,1.52
2022-11-18T13:40:01.273Z,1.58
2022-11-18T13:42:31.280Z,1.60
2022-11-18T13:45:01.739Z,1.42
2022-11-18T13:47:33.047Z,1.58
2022-11-18T13:50:06.333Z,1.75
2022-11-18T13:52:39.613Z,1.40
2022-11-18T13:55:19.864Z,1.60
2022-11-18T13:57:50.599Z,1.80
2022-11-18T14:00:24.504Z,1.50
2022-11-18T14:02:57.976Z,1.60
2022-11-18T14:05:27.515Z,1.50
2022-11-18T14:08:07.036Z,1.60
2022-11-18T14:10:43.496Z,1.50
2022-11-18T14:13:20.406Z,1.60
2022-11-18T14:15:50.073Z,1.75
2022-11-18T14:18:30.506Z,1.60
2022-11-18T14:21:00.087Z,1.60
2022-11-18T14:23:30.756Z,1.80
2022-11-18T14:26:03.763Z,1.80
2022-11-18T14:28:34.056Z,1.73
2022-11-18T14:31:05.432Z,1.50
2022-11-18T14:33:37.011Z,1.45
2022-11-18T14:36:13.058Z,1.90
2022-11-18T14:41:51.708Z,1.90
2022-11-18T14:44:21.676Z,1.60
2022-11-18T14:46:53.447Z,1.73
2022-11-18T14:49:24.417Z,1.40
2022-11-18T14:51:54.685Z,1.77
2022-11-18T14:54:27.673Z,1.73
2022-11-18T14:57:01.037Z,1.60
2022-11-18T14:59:30.498Z,1.52
2022-11-18T15:02:00.177Z,2.30
2022-11-18T15:04:29.748Z,1.60
2022-11-18T15:06:59.292Z,1.80
2022-11-18T15:09:28.774Z,1.95
2022-11-18T15:12:00.897Z,1.77
2022-11-18T15:14:30.540Z,2.00
2022-11-18T15:17:01.099Z,1.92
2022-11-18T15:19:32.183Z,2.20
2022-11-18T15:22:01.796Z,2.10
2022-11-18T15:24:31.603Z,2.20
2022-11-18T15:27:05.642Z,2.83
2022-11-18T15:29:35.128Z,2.90
2022-11-18T15:32:05.337Z,3.00
2022-11-18T15:34:34.834Z,2.57
2022-11-18T15:37:04.844Z,2.13
2022-11-18T15:39:34.272Z,1.80
2022-11-18T15:42:06.369Z,1.90
2022-11-18T15:44:35.891Z,1.98
2022-11-18T15:47:05.438Z,2.50
2022-11-18T15:49:34.963Z,2.70
2022-11-18T15:52:04.495Z,3.55
2022-11-18T15:54:33.980Z,3.00
2022-11-18T15:57:06.052Z,3.10
2022-11-18T15:59:35.527Z,2.97
2022-11-18T16:02:05.295Z,3.72
2022-11-18T16:04:34.766Z,3.10
2022-11-18T16:07:04.295Z,2.83
2022-11-18T16:09:46.033Z,2.40
2022-11-18T16:12:30.570Z,2.50
2022-11-18T16:15:12.312Z,3.05
2022-11-18T16:17:41.946Z,1.92
2022-11-18T16:20:12.303Z,2.00
2022-11-18T16:22:41.801Z,2.03
2022-11-18T16:25:12.083Z,2.40
2022-11-18T16:27:44.190Z,2.10
2022-11-18T16:30:35.147Z,1.83
2022-11-18T16:35:34.159Z,1.83
2022-11-18T16:38:03.644Z,2.13
2022-11-18T16:40:33.122Z,2.05
2022-11-18T16:43:05.198Z,1.60
2022-11-18T16:45:34.885Z,1.92
2022-11-18T16:48:04.576Z,2.35
2022-11-18T16:50:34.035Z,2.10
2022-11-18T16:53:03.512Z,1.90
2022-11-18T16:55:32.966Z,1.80
2022-11-18T16:58:05.065Z,2.38
2022-11-18T17:01:09.323Z,2.60
2022-11-18T17:03:23.991Z,2.25
2022-11-18T17:05:53.448Z,2.08
2022-11-18T17:08:22.965Z,2.60
2022-11-18T17:10:52.473Z,2.80
2022-11-18T17:13:24.565Z,3.05
2022-11-18T17:15:54.027Z,3.90
2022-11-18T17:18:23.498Z,3.30
2022-11-18T17:20:52.931Z,3.35
2022-11-18T17:23:22.409Z,3.03
2022-11-18T17:25:51.848Z,2.80
2022-11-18T17:28:23.904Z,2.40
2022-11-18T17:30:53.468Z,2.85
2022-11-18T17:33:22.979Z,2.50
2022-11-18T17:36:01.503Z,1.92
2022-11-18T17:38:31.176Z,2.20
2022-11-18T17:41:00.763Z,2.30
2022-11-18T17:43:32.917Z,2.13
2022-11-18T17:46:02.868Z,2.92
2022-11-18T17:48:32.955Z,2.30
2022-11-18T17:51:09.048Z,2.10
2022-11-18T17:53:43.182Z,2.63
2022-11-18T17:56:12.989Z,3.00
2022-11-18T17:58:45.051Z,3.92
2022-11-18T18:01:15.514Z,3.88
2022-11-18T18:03:45.151Z,3.42
2022-11-18T18:06:14.811Z,6.13
2022-11-18T18:08:44.528Z,3.45
2022-11-18T18:11:14.804Z,5.97
2022-11-18T18:13:59.427Z,4.40
2022-11-18T18:16:28.910Z,4.90
2022-11-18T18:18:58.659Z,4.93
2022-11-18T18:21:28.135Z,4.03
2022-11-18T18:23:57.616Z,3.97
2022-11-18T18:26:31.436Z,4.43
2022-11-18T18:29:03.883Z,4.15
2022-11-18T18:31:36.453Z,5.60
2022-11-18T18:34:06.128Z,6.50
2022-11-18T18:36:35.702Z,6.47
2022-11-18T18:39:05.181Z,5.65
2022-11-18T18:41:34.736Z,5.57
2022-11-18T18:44:07.075Z,5.20
2022-11-18T18:46:34.163Z,4.40
2022-11-18T18:49:05.493Z,4.82
2022-11-18T18:51:37.584Z,3.83
2022-11-18T18:54:07.476Z,3.30
2022-11-18T18:56:38.495Z,2.33
2022-11-18T18:59:10.736Z,2.05
2022-11-18T19:01:40.420Z,2.17
2022-11-18T19:04:10.197Z,3.40
2022-11-18T19:09:29.452Z,4.63
2022-11-18T19:12:11.466Z,2.20
2022-11-18T19:14:43.640Z,2.00
2022-11-18T19:17:13.248Z,2.30
2022-11-18T19:19:55.524Z,3.28
2022-11-18T19:22:24.993Z,2.78
2022-11-18T19:24:54.917Z,2.40
2022-11-18T19:27:24.713Z,2.60
2022-11-18T19:29:56.783Z,3.08
2022-11-18T19:32:26.243Z,4.30
2022-11-18T19:34:55.734Z,8.18
2022-11-18T19:37:25.168Z,5.80
2022-11-18T19:39:54.976Z,4.97
2022-11-18T19:42:24.454Z,4.57
2022-11-18T19:44:56.575Z,2.03
2022-11-18T19:47:26.058Z,7.60
2022-11-18T19:49:55.582Z,1.98
2022-11-18T19:52:25.031Z,1.60
2022-11-18T19:54:54.617Z,3.45
2022-11-18T19:57:24.071Z,4.10
2022-11-18T19:59:56.104Z,6.65
2022-11-18T20:02:25.552Z,9.50
2022-11-18T20:05:07.530Z,2.20
2022-11-18T20:07:37.265Z,1.90
2022-11-18T20:10:09.315Z,1.85
2022-11-18T20:12:38.911Z,1.70
2022-11-18T20:15:12.845Z,2.20
2022-11-18T20:17:42.276Z,2.60
2022-11-18T20:20:13.058Z,2.65
2022-11-18T20:22:42.550Z,1.60
2022-11-18T20:25:13.716Z,2.10
2022-11-18T20:30:17.552Z,2.40
2022-11-18T20:32:47.368Z,2.80
2022-11-18T20:35:17.047Z,3.28
2022-11-18T20:37:46.530Z,4.43
2022-11-18T20:40:16.004Z,6.90
2022-11-18T20:42:57.976Z,6.97
2022-11-18T20:45:30.126Z,8.18
2022-11-18T20:47:59.691Z,7.22
2022-11-18T20:50:29.277Z,5.63
2022-11-18T20:52:58.867Z,6.00
2022-11-18T20:55:28.332Z,5.35
2022-11-18T20:57:57.821Z,5.60
2022-11-18T21:00:29.888Z,7.05
2022-11-18T21:02:59.448Z,5.50
2022-11-18T21:05:31.063Z,4.80
2022-11-18T21:08:00.536Z,4.53
2022-11-18T21:10:30.046Z,3.72
2022-11-18T21:13:11.958Z,4.03
2022-11-18T21:15:44.016Z,3.35
2022-11-18T21:18:13.495Z,2.70
2022-11-18T21:20:55.446Z,3.03
2022-11-18T21:23:24.916Z,3.90
2022-11-18T21:25:54.454Z,3.40
2022-11-18T21:28:23.936Z,3.30
2022-11-18T21:30:56.016Z,3.03
2022-11-18T21:33:25.736Z,2.50
2022-11-18T21:35:55.211Z,2.65
2022-11-18T21:38:24.689Z,2.95
2022-11-18T21:40:54.170Z,2.80
2022-11-18T21:43:50.253Z,2.67
2022-11-18T21:46:16.315Z,2.20
2022-11-18T21:48:45.854Z,2.30
2022-11-18T21:51:16.059Z,2.17
2022-11-18T21:53:45.903Z,2.30
2022-11-18T21:56:16.433Z,2.30
2022-11-18T21:58:45.946Z,2.47
2022-11-18T22:01:18.944Z,2.58
2022-11-18T22:03:55.048Z,2.50
2022-11-18T22:06:25.422Z,2.60
2022-11-18T22:08:54.909Z,2.58
2022-11-18T22:11:25.717Z,2.75
2022-11-18T22:13:55.403Z,2.53
2022-11-18T22:16:27.675Z,2.80
2022-11-18T22:19:03.670Z,4.50
2022-11-18T22:21:36.234Z,3.60
2022-11-18T22:24:05.776Z,3.67
2022-11-18T22:26:35.424Z,4.00
2022-11-18T22:29:04.868Z,3.35
2022-11-18T22:31:36.952Z,3.95
2022-11-18T22:34:06.544Z,3.50
2022-11-18T22:36:36.068Z,4.15
2022-11-18T22:39:05.686Z,4.13
2022-11-18T22:41:50.028Z,3.95
2022-11-18T22:44:19.506Z,3.45
2022-11-18T22:46:51.608Z,3.60
2022-11-18T22:49:22.383Z,4.72
2022-11-18T22:51:52.061Z,6.55
2022-11-18T22:57:10.971Z,6.03
2022-11-18T22:59:40.464Z,6.28
2022-11-18T23:02:12.535Z,5.65
2022-11-18T23:04:42.038Z,4.30
2022-11-18T23:07:11.555Z,4.20
2022-11-18T23:09:41.053Z,5.00
2022-11-18T23:12:23.016Z,5.30
2022-11-18T23:14:52.443Z,4.28
2022-11-18T23:17:24.528Z,3.20
2022-11-18T23:19:53.991Z,3.15
2022-11-18T23:22:23.501Z,3.80
2022-11-18T23:24:53.199Z,3.53
2022-11-18T23:27:22.673Z,3.40
2022-11-18T23:29:52.181Z,3.40
2022-11-18T23:32:24.239Z,2.90
2022-11-18T23:34:53.732Z,2.78
2022-11-18T23:37:23.200Z,3.00
2022-11-18T23:39:52.643Z,2.90
2022-11-18T23:42:22.164Z,2.60
2022-11-18T23:44:52.861Z,2.70
2022-11-18T23:47:24.963Z,2.88
2022-11-18T23:49:54.396Z,2.88
2022-11-18T23:52:23.924Z,2.83
2022-11-18T23:54:54.563Z,2.30
2022-11-18T23:57:24.132Z,2.22
2022-11-18T23:59:53.593Z,2.40
